Time;durP1;ratioP1;P1;durP2;ratioP2;P2;SDS_P1;SDS_P2;PMS_P1;PMS_P2;Temp;Humidity;BMP_temperature;BMP_pressure;BME280_temperature;BME280_humidity;BME280_pressure;Samples;Min_cycle;Max_cycle;Signal;HPM_P1;HPM_P2
2023/04/16 00:01:57;;;;;;;3.83;0.93;;;;;;;14.60;61.07;102121.28;5069260;28;20032;-59
2023/04/16 00:04:22;;;;;;;1.35;0.68;;;;;;;14.60;61.35;102137.38;5060053;28;20041;-59
2023/04/16 00:06:48;;;;;;;2.00;0.82;;;;;;;14.60;61.19;102132.00;5069918;28;20394;-59
2023/04/16 00:09:13;;;;;;;2.15;0.65;;;;;;;14.60;61.08;102127.53;5066388;28;20037;-60
2023/04/16 00:11:39;;;;;;;1.52;0.95;;;;;;;14.59;61.51;102125.78;5064290;28;20487;-60
2023/04/16 00:14:04;;;;;;;2.45;0.68;;;;;;;14.60;61.17;102129.31;5072005;28;20033;-59
2023/04/16 00:16:30;;;;;;;2.83;0.82;;;;;;;14.59;61.00;102135.66;5067336;28;20411;-59
2023/04/16 00:18:55;;;;;;;2.90;0.80;;;;;;;14.58;61.26;102129.44;5067956;28;20034;-59
2023/04/16 00:21:21;;;;;;;2.15;0.70;;;;;;;14.59;61.01;102131.16;5061685;28;20036;-59
2023/04/16 00:23:46;;;;;;;3.03;0.85;;;;;;;14.58;61.04;102120.53;5064072;28;20055;-59
2023/04/16 00:26:11;;;;;;;0.85;0.75;;;;;;;14.57;61.25;102119.66;5065671;28;20041;-59
2023/04/16 00:28:37;;;;;;;2.03;1.08;;;;;;;14.57;61.17;102127.72;5067527;28;20478;-59
2023/04/16 00:31:02;;;;;;;1.20;0.70;;;;;;;14.58;60.92;102124.09;5052826;28;20028;-59
2023/04/16 00:33:28;;;;;;;2.28;0.90;;;;;;;14.59;61.14;102138.34;5060573;28;20112;-59
2023/04/16 00:35:55;;;;;;;1.67;0.70;;;;;;;14.58;61.44;102136.59;5067209;28;20040;-59
2023/04/16 00:38:20;;;;;;;2.97;0.77;;;;;;;14.57;60.99;102141.09;5069243;28;20064;-59
2023/04/16 00:40:45;;;;;;;2.30;0.88;;;;;;;14.57;61.23;102133.06;5059135;28;20054;-59
2023/04/16 00:43:11;;;;;;;2.67;0.90;;;;;;;14.57;60.92;102126.84;5068608;28;20045;-59
2023/04/16 00:45:36;;;;;;;2.70;1.00;;;;;;;14.57;60.96;102126.84;5060990;28;20036;-59
2023/04/16 00:48:02;;;;;;;0.68;0.68;;;;;;;14.56;61.23;102131.28;5071338;28;20041;-59
2023/04/16 00:50:28;;;;;;;2.80;0.95;;;;;;;14.56;60.84;102125.94;5065519;28;20033;-59
2023/04/16 00:52:55;;;;;;;2.33;0.70;;;;;;;14.55;60.86;102123.38;5062644;28;20024;-59
2023/04/16 00:55:20;;;;;;;1.70;0.90;;;;;;;14.55;61.00;102129.59;5065958;28;20482;-60
2023/04/16 00:57:46;;;;;;;1.52;0.80;;;;;;;14.55;60.83;102129.59;5065629;28;20112;-59
2023/04/16 01:00:12;;;;;;;0.80;0.80;;;;;;;14.55;60.65;102123.38;5072006;28;20117;-59
2023/04/16 01:02:38;;;;;;;1.05;0.80;;;;;;;14.55;60.78;102128.72;5058936;28;20045;-60
2023/04/16 01:05:04;;;;;;;1.13;0.70;;;;;;;14.54;61.02;102127.00;5069105;28;20085;-59
2023/04/16 01:07:30;;;;;;;3.15;0.90;;;;;;;14.54;60.98;102132.34;5060268;28;20036;-60
2023/04/16 01:09:56;;;;;;;3.63;1.10;;;;;;;14.54;60.85;102129.66;5069422;28;20120;-59
2023/04/16 01:12:22;;;;;;;2.17;0.90;;;;;;;14.54;60.66;102127.84;5066106;28;20068;-59
2023/04/16 01:14:47;;;;;;;2.55;1.05;;;;;;;14.53;60.79;102125.28;5058478;28;20352;-59
2023/04/16 01:17:13;;;;;;;1.85;1.27;;;;;;;14.54;60.81;102122.47;5068672;28;20029;-60
2023/04/16 01:19:38;;;;;;;2.38;0.90;;;;;;;14.54;60.75;102127.00;5061097;28;20047;-59
2023/04/16 01:22:04;;;;;;;1.17;1.08;;;;;;;14.53;60.66;102118.09;5072106;28;20552;-60
2023/04/16 01:24:30;;;;;;;2.67;1.00;;;;;;;14.53;60.86;102119.91;5059128;28;20035;-59
2023/04/16 01:26:58;;;;;;;4.13;1.10;;;;;;;14.52;60.97;102118.19;5061195;28;20448;-60
2023/04/16 01:29:24;;;;;;;1.95;0.80;;;;;;;14.53;61.03;102117.25;5046058;28;20083;-60
2023/04/16 01:31:50;;;;;;;1.70;0.80;;;;;;;14.52;60.54;102123.53;5063509;28;20028;-59
2023/04/16 01:34:15;;;;;;;2.00;0.90;;;;;;;14.52;61.02;102131.59;5064114;28;20081;-60
2023/04/16 01:36:40;;;;;;;1.90;0.90;;;;;;;14.53;60.93;102127.97;5067492;28;20044;-59
2023/04/16 01:39:06;;;;;;;2.58;0.82;;;;;;;14.52;61.00;102131.59;5064139;28;20143;-59
2023/04/16 01:41:31;;;;;;;1.58;1.05;;;;;;;14.52;60.74;102134.25;5070560;28;20056;-59
2023/04/16 01:43:56;;;;;;;0.95;0.80;;;;;;;14.52;60.93;102142.31;5059134;28;20540;-60
2023/04/16 01:46:29;;;;;;;0.98;0.80;;;;;;;14.52;60.87;102128.91;5059939;28;20175;-59
2023/04/16 01:48:56;;;;;;;2.38;0.70;;;;;;;14.52;60.94;102131.59;5045939;28;20394;-59
2023/04/16 01:51:21;;;;;;;2.15;0.80;;;;;;;14.51;60.83;102129.84;5067359;28;20067;-59
2023/04/16 01:53:48;;;;;;;1.35;0.82;;;;;;;14.52;61.02;102128.91;5069870;28;20452;-60
2023/04/16 01:56:13;;;;;;;2.00;1.00;;;;;;;14.51;61.11;102132.53;5062077;28;20029;-59
2023/04/16 01:58:40;;;;;;;1.50;0.93;;;;;;;14.50;60.96;102130.81;5065809;28;20471;-59
2023/04/16 02:01:05;;;;;;;1.20;0.68;;;;;;;14.49;60.65;102135.31;5061653;28;20021;-60
2023/04/16 02:03:31;;;;;;;1.10;0.93;;;;;;;14.50;60.74;102133.50;5061395;28;20401;-59
2023/04/16 02:05:56;;;;;;;2.25;1.02;;;;;;;14.49;60.54;102143.34;5064260;28;20036;-59
2023/04/16 02:08:22;;;;;;;1.52;0.82;;;;;;;14.49;60.59;102135.31;5066154;28;20067;-59
2023/04/16 02:10:49;;;;;;;1.30;0.80;;;;;;;14.48;60.75;102133.59;5064594;28;20051;-60
2023/04/16 02:13:15;;;;;;;1.58;0.80;;;;;;;14.47;60.62;102132.72;5064070;28;20044;-59
2023/04/16 02:15:46;;;;;;;1.58;0.85;;;;;;;14.47;60.70;102132.72;5064135;28;20059;-59
2023/04/16 02:18:11;;;;;;;1.63;0.77;;;;;;;14.48;60.94;102125.53;5062319;28;20052;-59
2023/04/16 02:20:44;;;;;;;1.90;0.77;;;;;;;14.48;60.93;102131.75;5065623;28;20029;-59
2023/04/16 02:23:10;;;;;;;2.95;0.90;;;;;;;14.47;60.98;102127.38;5074338;28;20059;-59
2023/04/16 02:25:40;;;;;;;1.10;0.90;;;;;;;14.47;60.96;102127.38;5061535;28;20024;-59
2023/04/16 02:28:10;;;;;;;1.92;0.77;;;;;;;14.47;60.97;102123.84;5066612;28;20016;-59
2023/04/16 02:30:36;;;;;;;2.00;1.08;;;;;;;14.47;60.98;102123.84;5050973;28;20055;-60
2023/04/16 02:33:04;;;;;;;1.30;1.10;;;;;;;14.46;60.65;102122.94;5062281;28;20359;-59
2023/04/16 02:35:30;;;;;;;1.17;0.63;;;;;;;14.47;60.37;102127.38;5067461;28;20025;-59
2023/04/16 02:37:56;;;;;;;2.25;1.15;;;;;;;14.47;60.59;102129.19;5065283;28;20036;-59
2023/04/16 02:40:21;;;;;;;1.58;0.80;;;;;;;14.46;60.68;102130.13;5066069;28;20078;-59
2023/04/16 02:42:46;;;;;;;3.17;1.10;;;;;;;14.45;60.50;102126.59;5064607;28;20036;-59
2023/04/16 02:45:12;;;;;;;2.50;0.90;;;;;;;14.45;60.74;102129.28;5061103;28;20465;-59
2023/04/16 02:47:38;;;;;;;1.13;0.88;;;;;;;14.45;60.71;102134.63;5065582;28;20088;-59
2023/04/16 02:50:03;;;;;;;2.60;0.85;;;;;;;14.45;60.40;102129.28;5062108;28;20033;-59
2023/04/16 02:52:29;;;;;;;0.65;0.60;;;;;;;14.44;60.63;102132.91;5068470;28;20496;-59
2023/04/16 02:54:54;;;;;;;1.05;0.90;;;;;;;14.44;60.90;102135.56;5064150;28;20494;-59
2023/04/16 02:57:19;;;;;;;1.65;0.80;;;;;;;14.45;60.48;102142.69;5061457;28;20485;-59
2023/04/16 02:59:45;;;;;;;1.95;0.85;;;;;;;14.45;60.68;102139.16;5057316;28;20043;-59
2023/04/16 03:02:10;;;;;;;1.15;0.90;;;;;;;14.44;60.59;102143.63;5063870;28;20065;-59
2023/04/16 03:04:36;;;;;;;1.98;0.93;;;;;;;14.45;60.69;102145.34;5042919;28;20040;-59
2023/04/16 03:07:01;;;;;;;2.00;0.98;;;;;;;14.45;60.87;102149.88;5065137;28;20028;-59
2023/04/16 03:09:26;;;;;;;2.63;0.90;;;;;;;14.44;60.45;102148.97;5046028;28;20039;-59
2023/04/16 03:11:52;;;;;;;2.22;0.95;;;;;;;14.43;60.82;102147.25;5047114;28;20039;-59
2023/04/16 03:14:17;;;;;;;1.52;1.05;;;;;;;14.43;60.84;102149.94;5065167;28;20439;-59
2023/04/16 03:16:43;;;;;;;1.75;0.82;;;;;;;14.44;60.92;102158.84;5057555;28;20040;-59
2023/04/16 03:19:08;;;;;;;1.50;0.90;;;;;;;14.43;60.55;102149.06;5068066;28;20024;-59
2023/04/16 03:21:33;;;;;;;2.70;0.98;;;;;;;14.43;60.46;102157.09;5059740;28;20032;-59
2023/04/16 03:23:59;;;;;;;1.85;0.90;;;;;;;14.42;60.66;102156.25;5064920;28;20047;-59
2023/04/16 03:26:24;;;;;;;1.50;1.10;;;;;;;14.42;60.53;102160.75;5060860;28;20029;-60
2023/04/16 03:28:49;;;;;;;2.20;1.05;;;;;;;14.43;60.38;102157.09;5056749;28;20044;-59
2023/04/16 03:31:15;;;;;;;0.95;0.93;;;;;;;14.42;60.92;102155.38;5068167;28;20539;-59
2023/04/16 03:33:41;;;;;;;1.83;0.90;;;;;;;14.42;60.61;102158.06;5058793;28;20033;-59
2023/04/16 03:36:07;;;;;;;2.35;1.02;;;;;;;14.41;60.75;102159.91;5063832;28;20351;-59
2023/04/16 03:38:32;;;;;;;2.03;1.25;;;;;;;14.41;60.48;102154.53;5061599;28;20040;-59
2023/04/16 03:40:57;;;;;;;3.13;1.33;;;;;;;14.41;60.64;102159.91;5059694;28;20155;-59
2023/04/16 03:43:23;;;;;;;1.77;1.38;;;;;;;14.42;60.51;102155.38;5076676;28;20036;-59
2023/04/16 03:45:48;;;;;;;1.63;0.80;;;;;;;14.42;60.77;102166.97;5065461;28;20040;-59
2023/04/16 03:48:14;;;;;;;1.48;1.05;;;;;;;14.42;60.49;102152.72;5067744;28;20067;-59
2023/04/16 03:50:44;;;;;;;2.83;1.25;;;;;;;14.40;60.66;102155.47;5063644;28;20048;-59
2023/04/16 03:53:09;;;;;;;1.83;1.30;;;;;;;14.40;60.56;102150.13;5068511;28;20055;-59
2023/04/16 03:55:35;;;;;;;1.60;0.95;;;;;;;14.41;60.43;102159.00;5067062;28;20033;-59
2023/04/16 03:58:02;;;;;;;1.27;1.15;;;;;;;14.40;60.21;102160.84;5060628;28;20082;-59
2023/04/16 04:00:28;;;;;;;2.47;1.10;;;;;;;14.40;60.62;102163.50;5070014;28;20082;-60
2023/04/16 04:02:53;;;;;;;2.33;1.38;;;;;;;14.40;60.54;102160.84;5061613;28;20371;-59
2023/04/16 04:05:19;;;;;;;2.53;1.35;;;;;;;14.40;60.69;102155.47;5054395;28;20035;-59
2023/04/16 04:07:44;;;;;;;2.45;1.58;;;;;;;14.40;60.52;102152.78;5067505;28;20043;-59
2023/04/16 04:10:10;;;;;;;1.70;1.40;;;;;;;14.41;60.67;102159.91;5062795;28;20024;-59
2023/04/16 04:12:35;;;;;;;1.95;1.40;;;;;;;14.40;60.61;102154.63;5068206;28;20029;-59
2023/04/16 04:15:00;;;;;;;2.35;1.42;;;;;;;14.40;60.25;102152.78;5061284;28;20033;-59
2023/04/16 04:17:26;;;;;;;2.42;1.40;;;;;;;14.39;60.43;102153.75;5054108;28;20112;-60
2023/04/16 04:19:52;;;;;;;2.45;1.50;;;;;;;14.40;60.66;102158.16;5060474;28;20044;-59
2023/04/16 04:22:18;;;;;;;2.35;1.50;;;;;;;14.38;60.72;102157.38;5061544;28;20031;-59
2023/04/16 04:24:43;;;;;;;1.90;1.13;;;;;;;14.38;60.23;102160.06;5064444;28;20388;-59
2023/04/16 04:27:09;;;;;;;1.40;1.15;;;;;;;14.39;60.17;102159.13;5065008;28;20063;-60
2023/04/16 04:29:34;;;;;;;2.13;1.50;;;;;;;14.39;60.45;102159.13;5071805;28;20032;-59
2023/04/16 04:32:00;;;;;;;1.88;1.40;;;;;;;14.39;60.36;102167.16;5060860;28;20025;-59
2023/04/16 04:34:25;;;;;;;2.13;1.23;;;;;;;14.39;60.51;102168.97;5063520;28;20031;-59
2023/04/16 04:36:50;;;;;;;2.95;1.45;;;;;;;14.39;60.43;102177.88;5072097;28;20029;-59
2023/04/16 04:39:16;;;;;;;2.92;1.55;;;;;;;14.39;60.38;102168.97;5059489;28;20043;-59
2023/04/16 04:41:41;;;;;;;3.28;1.65;;;;;;;14.38;60.28;102176.13;5059797;28;20266;-59
2023/04/16 04:44:07;;;;;;;2.70;1.35;;;;;;;14.38;60.53;102173.47;5064403;28;20037;-59
2023/04/16 04:46:32;;;;;;;2.50;1.63;;;;;;;14.37;60.31;102177.06;5065016;28;20406;-59
2023/04/16 04:48:57;;;;;;;2.42;1.48;;;;;;;14.37;60.23;102178.91;5072139;28;20036;-59
2023/04/16 04:51:23;;;;;;;2.40;1.27;;;;;;;14.36;60.66;102179.88;5043925;28;20036;-59
2023/04/16 04:53:48;;;;;;;2.78;1.23;;;;;;;14.36;60.10;102180.72;5068376;28;20039;-59
2023/04/16 04:56:14;;;;;;;1.98;1.48;;;;;;;14.36;60.15;102179.88;5064925;28;20039;-59
2023/04/16 04:58:40;;;;;;;2.35;1.45;;;;;;;14.35;60.61;102187.03;5061395;28;20071;-59
2023/04/16 05:01:05;;;;;;;3.20;1.63;;;;;;;14.36;60.31;102188.75;5065909;28;20079;-59
2023/04/16 05:03:31;;;;;;;2.83;1.50;;;;;;;14.35;60.53;102184.34;5070564;28;20044;-59
2023/04/16 05:05:56;;;;;;;2.78;1.40;;;;;;;14.35;60.49;102179.00;5066746;28;20061;-59
2023/04/16 05:08:21;;;;;;;2.72;1.40;;;;;;;14.36;60.52;102185.22;5065724;28;20060;-59
2023/04/16 05:10:47;;;;;;;2.22;1.63;;;;;;;14.36;60.45;102185.22;5064549;28;20048;-59
2023/04/16 05:13:12;;;;;;;1.52;1.40;;;;;;;14.35;60.24;102187.03;5063550;28;20043;-59
2023/04/16 05:15:38;;;;;;;2.13;1.30;;;;;;;14.34;60.22;102179.97;5066191;28;20040;-59
2023/04/16 05:18:03;;;;;;;1.75;1.20;;;;;;;14.35;60.43;102186.16;5065818;28;20466;-60
2023/04/16 05:20:28;;;;;;;2.85;1.40;;;;;;;14.34;60.51;102190.69;5062908;28;20033;-59
2023/04/16 05:22:54;;;;;;;1.73;1.17;;;;;;;14.34;60.44;102188.00;5065606;28;20036;-59
2023/04/16 05:25:20;;;;;;;1.70;1.20;;;;;;;14.34;60.16;102193.34;5046529;28;20049;-59
2023/04/16 05:27:45;;;;;;;3.08;1.48;;;;;;;14.33;60.38;102194.28;5048509;28;20035;-59
2023/04/16 05:30:11;;;;;;;3.72;1.63;;;;;;;14.35;60.33;102210.28;5071420;28;20028;-59
2023/04/16 05:32:38;;;;;;;2.22;1.80;;;;;;;14.33;60.36;102199.66;5061664;28;20036;-59
2023/04/16 05:35:03;;;;;;;2.83;1.40;;;;;;;14.33;60.55;102202.34;5066430;28;20024;-59
2023/04/16 05:37:29;;;;;;;3.10;1.30;;;;;;;14.33;60.56;102205.00;5067859;28;20111;-59
2023/04/16 05:39:54;;;;;;;1.92;1.23;;;;;;;14.32;60.28;102214.00;5059190;28;20048;-59
2023/04/16 05:42:20;;;;;;;1.20;1.10;;;;;;;14.33;60.48;102213.03;5063237;28;20462;-59
2023/04/16 05:44:45;;;;;;;1.90;1.33;;;;;;;14.33;60.76;102215.72;5063651;28;20033;-59
2023/04/16 05:47:11;;;;;;;2.10;1.13;;;;;;;14.33;60.34;102222.91;5062155;28;20072;-59
2023/04/16 05:49:36;;;;;;;1.73;1.25;;;;;;;14.33;60.50;102221.09;5043024;28;20064;-59
2023/04/16 05:52:02;;;;;;;1.98;1.65;;;;;;;14.32;60.75;102219.38;5066617;28;20031;-59
2023/04/16 05:54:28;;;;;;;2.08;1.60;;;;;;;14.31;60.71;102222.13;5066609;28;20118;-59
2023/04/16 05:56:53;;;;;;;2.70;1.48;;;;;;;14.31;60.44;102228.34;5063769;28;20562;-59
2023/04/16 05:59:19;;;;;;;3.20;1.98;;;;;;;14.32;60.41;102230.09;5065045;28;20120;-59
2023/04/16 06:01:44;;;;;;;1.60;1.15;;;;;;;14.31;60.22;102233.72;5061408;28;20029;-59
2023/04/16 06:04:10;;;;;;;2.25;1.33;;;;;;;14.32;60.66;102229.22;5065403;28;20115;-60
2023/04/16 06:06:36;;;;;;;1.80;1.48;;;;;;;14.31;60.28;102236.38;5071581;28;20042;-59
2023/04/16 06:09:02;;;;;;;2.40;1.27;;;;;;;14.30;60.49;102223.97;5061725;28;20043;-60
2023/04/16 06:11:29;;;;;;;1.70;1.27;;;;;;;14.30;60.39;102234.69;5062890;28;20389;-59
2023/04/16 06:13:55;;;;;;;2.33;1.38;;;;;;;14.31;60.48;102231.03;5062497;28;20380;-59
2023/04/16 06:16:20;;;;;;;1.92;1.55;;;;;;;14.30;60.18;102232.00;5068921;28;20028;-59
2023/04/16 06:18:45;;;;;;;1.52;1.08;;;;;;;14.31;60.33;102235.53;5069249;28;20497;-59
2023/04/16 06:21:11;;;;;;;3.67;1.58;;;;;;;14.31;60.32;102231.03;5062518;28;20052;-59
2023/04/16 06:23:36;;;;;;;2.10;1.50;;;;;;;14.30;60.14;102237.34;5053181;28;20037;-59
2023/04/16 06:26:02;;;;;;;2.70;1.40;;;;;;;14.30;60.42;102237.34;5065671;28;20029;-59
2023/04/16 06:28:27;;;;;;;3.28;1.67;;;;;;;14.30;60.30;102237.34;5049826;28;20124;-59
2023/04/16 06:30:52;;;;;;;1.98;1.27;;;;;;;14.30;60.41;102248.06;5058288;28;20072;-59
2023/04/16 06:33:18;;;;;;;2.33;1.23;;;;;;;14.29;60.26;102240.97;5061386;28;20041;-59
2023/04/16 06:35:43;;;;;;;2.40;1.42;;;;;;;14.30;60.45;102248.06;5069972;28;20078;-59
2023/04/16 06:38:09;;;;;;;1.55;1.20;;;;;;;14.29;60.71;102257.03;5059744;28;20158;-59
2023/04/16 06:40:36;;;;;;;1.60;1.50;;;;;;;14.28;60.63;102250.84;5060178;28;20386;-59
2023/04/16 06:43:01;;;;;;;1.85;1.63;;;;;;;14.30;60.58;102252.53;5064113;28;20036;-59
2023/04/16 06:45:27;;;;;;;3.28;1.65;;;;;;;14.28;60.24;102249.97;5064567;28;20041;-59
2023/04/16 06:47:52;;;;;;;2.20;1.35;;;;;;;14.28;60.61;102258.88;5061248;28;20083;-59
2023/04/16 06:50:18;;;;;;;4.25;1.98;;;;;;;14.28;60.40;102256.19;5063847;28;20028;-59
2023/04/16 06:52:43;;;;;;;4.63;1.60;;;;;;;14.28;60.45;102260.69;5064996;28;20024;-59
2023/04/16 06:55:09;;;;;;;3.70;1.67;;;;;;;14.27;60.60;102272.34;5062649;28;20032;-59
2023/04/16 06:57:35;;;;;;;1.38;1.20;;;;;;;14.27;60.55;102270.53;5061731;28;20031;-59
2023/04/16 07:00:03;;;;;;;1.35;1.00;;;;;;;14.27;60.73;102270.53;5064822;28;20036;-59
2023/04/16 07:02:29;;;;;;;1.70;1.35;;;;;;;14.27;60.11;102272.34;5064055;28;20520;-59
2023/04/16 07:04:54;;;;;;;3.05;2.00;;;;;;;14.27;60.38;102273.22;5061487;28;20051;-59
2023/04/16 07:07:20;;;;;;;3.55;1.80;;;;;;;14.26;60.47;102274.19;5060653;28;20037;-59
2023/04/16 07:09:45;;;;;;;3.00;1.60;;;;;;;14.27;60.19;102283.06;5061517;28;20390;-59
2023/04/16 07:12:10;;;;;;;3.22;1.45;;;;;;;14.26;60.18;102278.69;5063001;28;20057;-59
2023/04/16 07:14:36;;;;;;;2.25;1.50;;;;;;;14.26;60.33;102279.53;5064369;28;20055;-59
2023/04/16 07:17:01;;;;;;;2.92;1.67;;;;;;;14.26;60.64;102281.34;5054332;28;20529;-59
2023/04/16 07:19:31;;;;;;;3.63;1.90;;;;;;;14.27;60.49;102285.75;5064912;28;20083;-59
2023/04/16 07:21:56;;;;;;;3.13;1.83;;;;;;;14.27;60.52;102293.78;5071617;28;20039;-59
2023/04/16 07:24:22;;;;;;;2.95;1.67;;;;;;;14.27;60.59;102288.44;5060683;28;20036;-59
2023/04/16 07:26:47;;;;;;;2.35;1.80;;;;;;;14.26;60.21;102292.06;5070727;28;20059;-59
2023/04/16 07:29:12;;;;;;;2.53;1.90;;;;;;;14.26;60.63;102294.75;5065619;28;20617;-59
2023/04/16 07:31:38;;;;;;;2.17;1.75;;;;;;;14.26;60.16;102294.75;5069982;28;20445;-60
2023/04/16 07:34:03;;;;;;;2.90;1.88;;;;;;;14.25;60.42;102293.00;5068219;28;20037;-59
2023/04/16 07:36:28;;;;;;;2.75;1.88;;;;;;;14.26;60.22;102297.44;5060683;28;20134;-59
2023/04/16 07:38:55;;;;;;;4.13;1.90;;;;;;;14.26;60.32;102294.75;5071280;28;20111;-59
2023/04/16 07:41:20;;;;;;;2.00;1.52;;;;;;;14.25;60.69;102296.53;5063550;28;20072;-59
2023/04/16 07:43:46;;;;;;;3.78;1.88;;;;;;;14.24;60.15;102308.22;5058816;28;20489;-59
2023/04/16 07:46:11;;;;;;;3.20;1.95;;;;;;;14.24;60.07;102302.88;5062753;28;20533;-59
2023/04/16 07:48:36;;;;;;;2.65;1.90;;;;;;;14.25;60.89;102309.94;5065054;28;20563;-59
2023/04/16 07:51:02;;;;;;;4.15;2.20;;;;;;;14.24;60.61;102308.22;5066441;28;20390;-59
2023/04/16 07:53:27;;;;;;;3.63;1.77;;;;;;;14.24;60.58;102313.59;5077025;28;20390;-59
2023/04/16 07:55:52;;;;;;;3.70;2.58;;;;;;;14.24;60.69;102312.69;5061828;28;20502;-60
2023/04/16 07:58:18;;;;;;;2.75;1.67;;;;;;;14.25;60.15;102319.78;5073476;28;20071;-59
2023/04/16 08:00:44;;;;;;;4.80;2.22;;;;;;;14.24;60.24;102323.41;5070371;28;20031;-59
2023/04/16 08:03:09;;;;;;;5.07;1.85;;;;;;;14.25;60.69;102327.84;5064199;28;20036;-59
2023/04/16 08:05:35;;;;;;;2.03;1.75;;;;;;;14.23;60.67;102324.38;5060256;28;20384;-59
2023/04/16 08:08:00;;;;;;;5.25;1.95;;;;;;;14.24;60.73;102328.78;5060684;28;20044;-59
2023/04/16 08:10:27;;;;;;;5.75;2.22;;;;;;;14.24;60.40;102334.13;5067504;28;20024;-59
2023/04/16 08:12:52;;;;;;;4.15;2.20;;;;;;;14.23;60.73;102329.72;5043540;28;20119;-59
2023/04/16 08:15:18;;;;;;;6.22;2.22;;;;;;;14.23;60.25;102335.94;5072436;28;20104;-59
2023/04/16 08:17:43;;;;;;;3.30;2.00;;;;;;;14.23;60.57;102338.63;5061675;28;20075;-59
2023/04/16 08:20:09;;;;;;;3.60;2.00;;;;;;;14.23;60.43;102338.63;5063066;28;20474;-59
2023/04/16 08:22:34;;;;;;;2.63;1.75;;;;;;;14.23;60.30;102338.63;5071173;28;20161;-59
2023/04/16 08:25:00;;;;;;;4.63;2.50;;;;;;;14.22;60.51;102336.91;5062017;28;20394;-59
2023/04/16 08:27:25;;;;;;;4.43;2.47;;;;;;;14.23;60.35;102348.50;5073471;28;20386;-59
2023/04/16 08:29:51;;;;;;;5.13;2.15;;;;;;;14.23;60.29;102346.66;5060195;28;20367;-59
2023/04/16 08:32:16;;;;;;;3.40;2.20;;;;;;;14.22;60.28;102352.09;5068295;28;20029;-59
2023/04/16 08:34:42;;;;;;;3.10;2.55;;;;;;;14.22;60.50;102353.00;5063431;28;20040;-60
2023/04/16 08:37:08;;;;;;;4.50;2.30;;;;;;;14.23;60.34;102351.16;5062140;28;20490;-59
2023/04/16 08:39:34;;;;;;;2.72;1.88;;;;;;;14.22;60.24;102350.31;5057517;28;20115;-59
2023/04/16 08:42:01;;;;;;;4.70;2.38;;;;;;;14.22;60.48;102353.00;5048522;28;20033;-59
2023/04/16 08:44:32;;;;;;;5.28;2.50;;;;;;;14.22;60.49;102358.34;5061146;28;20459;-59
2023/04/16 08:46:59;;;;;;;5.47;2.10;;;;;;;14.22;60.25;102352.09;5062396;28;20457;-59
2023/04/16 08:49:25;;;;;;;4.18;2.45;;;;;;;14.21;60.74;102351.25;5067484;28;20053;-59
2023/04/16 08:51:53;;;;;;;3.50;2.00;;;;;;;14.21;60.72;102361.97;5062125;28;20387;-60
2023/04/16 08:54:37;;;;;;;5.53;2.45;;;;;;;14.22;60.33;102360.13;5063980;28;20074;-60
2023/04/16 08:57:05;;;;;;;3.47;2.28;;;;;;;14.22;60.39;102361.03;5068266;28;20021;-59
2023/04/16 08:59:31;;;;;;;4.75;2.25;;;;;;;14.21;60.27;102367.31;5066134;28;20028;-59
2023/04/16 09:01:58;;;;;;;3.80;2.60;;;;;;;14.21;60.53;102364.63;5063462;28;20031;-59
2023/04/16 09:04:27;;;;;;;6.55;2.63;;;;;;;14.22;60.44;102362.81;5066514;28;20029;-59
2023/04/16 09:06:54;;;;;;;4.78;2.45;;;;;;;14.21;60.24;102370.00;5061164;28;20274;-59
2023/04/16 09:09:21;;;;;;;3.53;1.95;;;;;;;14.21;60.47;102372.69;5056919;28;20479;-59
2023/04/16 09:11:50;;;;;;;3.05;2.15;;;;;;;14.21;60.53;102366.47;5061591;28;20484;-59
2023/04/16 09:14:16;;;;;;;4.43;2.50;;;;;;;14.22;60.29;102376.22;5064372;28;20048;-59
2023/04/16 09:16:44;;;;;;;4.65;2.17;;;;;;;14.21;60.64;102374.50;5047291;28;20415;-59
2023/04/16 09:19:09;;;;;;;5.90;2.45;;;;;;;14.22;60.57;102373.53;5062462;28;20058;-59
2023/04/16 09:21:35;;;;;;;3.92;2.40;;;;;;;14.22;60.49;102373.53;5064359;28;20029;-59
2023/04/16 09:24:02;;;;;;;3.28;2.33;;;;;;;14.21;60.81;102380.72;5060180;28;20387;-59
2023/04/16 09:26:27;;;;;;;4.03;2.28;;;;;;;14.21;60.31;102377.19;5064016;28;20037;-59
2023/04/16 09:28:53;;;;;;;3.80;2.22;;;;;;;14.21;60.39;102377.19;5062925;28;20048;-59
2023/04/16 09:31:18;;;;;;;3.50;2.38;;;;;;;14.21;60.54;102383.41;5063836;28;20060;-59
2023/04/16 09:34:01;;;;;;;5.28;2.63;;;;;;;14.23;60.65;102394.03;5067288;28;20057;-59
2023/04/16 09:36:27;;;;;;;4.35;2.47;;;;;;;14.21;60.44;102387.91;5059273;28;20033;-59
2023/04/16 09:38:53;;;;;;;3.15;2.13;;;;;;;14.22;60.97;102394.97;5063988;28;20074;-60
2023/04/16 09:41:24;;;;;;;7.38;2.25;;;;;;;14.21;60.96;102394.09;5061010;28;20119;-59
2023/04/16 09:43:56;;;;;;;4.70;2.17;;;;;;;14.23;60.97;102407.44;5064568;28;20059;-59
2023/04/16 09:46:36;;;;;;;4.47;2.65;;;;;;;14.22;60.57;102405.69;5061799;28;20470;-59
2023/04/16 09:49:08;;;;;;;4.25;2.03;;;;;;;14.22;60.97;102411.03;5056581;28;20490;-59
2023/04/16 09:51:40;;;;;;;3.63;2.10;;;;;;;14.22;60.78;102401.22;5058357;28;20033;-59
2023/04/16 09:54:05;;;;;;;;;;;;;;;14.30;60.52;102403.47;5062400;28;20113;-59
2023/04/16 09:56:31;;;;;;;4.75;2.95;;;;;;;14.23;60.31;102412.78;5063324;28;20050;-59
2023/04/16 09:58:59;;;;;;;4.88;2.53;;;;;;;14.22;60.50;102411.94;5058936;28;20076;-60
2023/04/16 10:01:24;;;;;;;5.60;2.50;;;;;;;14.22;60.80;102411.03;5071048;28;20382;-60
2023/04/16 10:03:53;;;;;;;4.50;3.03;;;;;;;14.21;60.56;102414.69;5060160;28;20041;-60
2023/04/16 10:06:20;;;;;;;5.75;2.83;;;;;;;14.20;60.47;102413.81;5068982;28;20501;-60
2023/04/16 10:08:47;;;;;;;4.82;2.45;;;;;;;14.21;60.60;102417.38;5061440;28;20029;-60
2023/04/16 10:11:13;;;;;;;4.95;2.80;;;;;;;14.20;60.61;102418.28;5065943;28;20028;-60
2023/04/16 10:13:38;;;;;;;5.00;2.60;;;;;;;14.20;60.85;102421.88;5061255;28;20517;-60
2023/04/16 10:16:05;;;;;;;3.42;2.70;;;;;;;14.20;60.86;102412.94;5068958;28;20029;-59
2023/04/16 10:18:32;;;;;;;4.65;2.75;;;;;;;14.20;60.86;102421.88;5059431;28;20029;-60
2023/04/16 10:20:58;;;;;;;4.70;2.60;;;;;;;14.20;60.74;102418.28;5069000;28;20107;-60
2023/04/16 10:23:23;;;;;;;5.20;2.97;;;;;;;14.20;60.66;102418.28;5059450;28;20367;-60
2023/04/16 10:25:49;;;;;;;3.70;2.78;;;;;;;14.20;60.61;102418.28;5064449;28;20033;-59
2023/04/16 10:28:15;;;;;;;6.28;3.10;;;;;;;14.20;60.53;102423.66;5059331;28;20028;-59
2023/04/16 10:30:51;;;;;;;4.32;2.67;;;;;;;14.19;60.42;102416.59;5067857;28;20382;-60
2023/04/16 10:33:21;;;;;;;3.70;2.70;;;;;;;14.19;60.61;102417.44;5067332;28;20025;-57
2023/04/16 10:35:49;;;;;;;4.97;2.63;;;;;;;14.20;60.79;102429.00;5063076;28;20032;-57
2023/04/16 10:38:27;;;;;;;4.07;2.35;;;;;;;14.20;60.53;102424.53;5043654;28;20055;-57
2023/04/16 10:41:01;;;;;;;3.47;2.83;;;;;;;14.20;60.32;102435.25;5061325;28;20374;-57
2023/04/16 10:43:28;;;;;;;3.97;2.90;;;;;;;14.20;60.80;102431.69;5062841;28;20036;-57
2023/04/16 10:45:54;;;;;;;5.22;2.85;;;;;;;14.19;60.83;102429.97;5068902;28;20036;-57
2023/04/16 10:48:20;;;;;;;4.35;2.60;;;;;;;14.20;61.09;102429.91;5056014;28;20387;-57
2023/04/16 10:50:57;;;;;;;4.65;2.65;;;;;;;14.21;60.81;102423.56;5064922;28;20052;-57
2023/04/16 10:53:26;;;;;;;3.85;2.50;;;;;;;14.21;61.07;102433.44;5062736;28;20493;-57
2023/04/16 10:56:11;;;;;;;4.63;2.83;;;;;;;14.23;61.25;102428.84;5061419;28;20307;-57
2023/04/16 10:58:36;;;;;;;4.05;2.70;;;;;;;14.24;61.06;102430.56;5065426;28;20036;-57
2023/04/16 11:01:12;;;;;;;4.60;2.45;;;;;;;14.24;61.47;102426.09;5062894;28;20021;-57
2023/04/16 11:03:47;;;;;;;3.08;2.60;;;;;;;14.27;61.42;102425.06;5063932;28;20044;-57
2023/04/16 11:06:13;;;;;;;3.58;2.35;;;;;;;14.27;61.28;102427.75;5055894;28;20104;-57
2023/04/16 11:08:40;;;;;;;4.60;2.92;;;;;;;14.28;61.43;102422.31;5060236;28;20124;-57
2023/04/16 11:11:05;;;;;;;5.57;2.78;;;;;;;14.29;61.50;102423.16;5062699;28;20514;-56
2023/04/16 11:13:31;;;;;;;4.50;2.70;;;;;;;14.30;61.22;102416.88;5060585;28;20103;-57
2023/04/16 11:15:57;;;;;;;4.25;3.17;;;;;;;14.31;61.25;102418.59;5064884;28;20115;-56
2023/04/16 11:18:23;;;;;;;3.25;2.78;;;;;;;14.32;61.21;102414.06;5048068;28;20025;-57
2023/04/16 11:20:50;;;;;;;5.30;3.20;;;;;;;14.33;61.31;102419.34;5067278;28;20074;-56